sensor_id;sensor_type;location;lat;lon;timestamp;temperature;humidity
26304;DHT22;57113;48.680;8.890;2022-12-10T00:00:51;7.40;99.90
26304;DHT22;57113;48.680;8.890;2022-12-10T00:03:17;7.40;99.90
26304;DHT22;57113;48.680;8.890;2022-12-10T00:05:42;7.40;99.90
26304;DHT22;57113;48.680;8.890;2022-12-10T00:08:08;7.50;99.90
26304;DHT22;57113;48.680;8.890;2022-12-10T00:10:34;7.60;99.90
26304;DHT22;57113;48.680;8.890;2022-12-10T00:12:59;7.60;99.90
26304;DHT22;57113;48.680;8.890;2022-12-10T00:15:25;7.70;99.90
26304;DHT22;57113;48.680;8.890;2022-12-10T00:17:50;7.70;99.90
26304;DHT22;57113;48.680;8.890;2022-12-10T00:20:16;7.70;99.90
26304;DHT22;57113;48.680;8.890;2022-12-10T00:22:42;7.80;99.90
26304;DHT22;57113;48.680;8.890;2022-12-10T00:25:07;7.80;99.90
26304;DHT22;57113;48.680;8.890;2022-12-10T00:27:33;7.80;99.90
26304;DHT22;57113;48.680;8.890;2022-12-10T00:29:59;7.80;99.90
26304;DHT22;57113;48.680;8.890;2022-12-10T00:32:24;7.70;99.90
26304;DHT22;57113;48.680;8.890;2022-12-10T00:34:50;7.70;99.90
26304;DHT22;57113;48.680;8.890;2022-12-10T00:37:15;7.70;99.90
26304;DHT22;57113;48.680;8.890;2022-12-10T00:39:41;7.70;99.90
26304;DHT22;57113;48.680;8.890;2022-12-10T00:42:06;7.60;99.90
26304;DHT22;57113;48.680;8.890;2022-12-10T00:44:32;7.60;99.90
26304;DHT22;57113;48.680;8.890;2022-12-10T00:46:58;7.60;99.90
26304;DHT22;57113;48.680;8.890;2022-12-10T00:49:23;7.50;99.90
26304;DHT22;57113;48.680;8.890;2022-12-10T00:51:50;7.50;99.90
26304;DHT22;57113;48.680;8.890;2022-12-10T00:54:15;7.50;99.90
26304;DHT22;57113;48.680;8.890;2022-12-10T00:56:41;7.50;99.90
26304;DHT22;57113;48.680;8.890;2022-12-10T00:59:07;7.40;99.90
26304;DHT22;57113;48.680;8.890;2022-12-10T01:01:38;7.40;99.90
26304;DHT22;57113;48.680;8.890;2022-12-10T01:04:10;7.40;99.90
26304;DHT22;57113;48.680;8.890;2022-12-10T01:06:41;7.40;99.90
26304;DHT22;57113;48.680;8.890;2022-12-10T01:09:10;7.50;99.90
26304;DHT22;57113;48.680;8.890;2022-12-10T01:11:38;7.60;99.90
26304;DHT22;57113;48.680;8.890;2022-12-10T01:14:05;7.70;99.90
26304;DHT22;57113;48.680;8.890;2022-12-10T01:16:31;7.70;99.90
26304;DHT22;57113;48.680;8.890;2022-12-10T01:18:58;7.70;99.90
26304;DHT22;57113;48.680;8.890;2022-12-10T01:21:25;7.80;99.90
26304;DHT22;57113;48.680;8.890;2022-12-10T01:23:52;7.70;99.90
26304;DHT22;57113;48.680;8.890;2022-12-10T01:26:23;7.80;99.90
26304;DHT22;57113;48.680;8.890;2022-12-10T01:28:49;7.70;99.90
26304;DHT22;57113;48.680;8.890;2022-12-10T01:31:21;7.80;99.90
26304;DHT22;57113;48.680;8.890;2022-12-10T01:33:47;7.70;99.90
26304;DHT22;57113;48.680;8.890;2022-12-10T01:36:18;7.70;99.90
26304;DHT22;57113;48.680;8.890;2022-12-10T01:38:45;7.70;99.90
26304;DHT22;57113;48.680;8.890;2022-12-10T01:41:16;7.60;99.90
26304;DHT22;57113;48.680;8.890;2022-12-10T01:43:53;7.70;99.90
26304;DHT22;57113;48.680;8.890;2022-12-10T01:46:20;7.60;99.90
26304;DHT22;57113;48.680;8.890;2022-12-10T01:48:46;7.60;99.90
26304;DHT22;57113;48.680;8.890;2022-12-10T01:51:13;7.50;99.90
26304;DHT22;57113;48.680;8.890;2022-12-10T01:53:40;7.50;99.90
26304;DHT22;57113;48.680;8.890;2022-12-10T01:56:06;7.50;99.90
26304;DHT22;57113;48.680;8.890;2022-12-10T01:58:31;7.50;99.90
26304;DHT22;57113;48.680;8.890;2022-12-10T02:01:01;7.40;99.90
26304;DHT22;57113;48.680;8.890;2022-12-10T02:09:12;7.50;99.90
26304;DHT22;57113;48.680;8.890;2022-12-10T02:11:48;7.60;99.90
26304;DHT22;57113;48.680;8.890;2022-12-10T02:16:59;7.70;99.90
26304;DHT22;57113;48.680;8.890;2022-12-10T02:22:26;7.70;99.90
26304;DHT22;57113;48.680;8.890;2022-12-10T02:24:53;7.80;99.90
26304;DHT22;57113;48.680;8.890;2022-12-10T02:27:32;7.80;99.90
26304;DHT22;57113;48.680;8.890;2022-12-10T02:30:00;7.70;99.90
26304;DHT22;57113;48.680;8.890;2022-12-10T02:32:35;7.70;99.90
26304;DHT22;57113;48.680;8.890;2022-12-10T02:35:05;7.70;99.90
26304;DHT22;57113;48.680;8.890;2022-12-10T02:37:35;7.70;99.90
26304;DHT22;57113;48.680;8.890;2022-12-10T02:40:07;7.60;99.90
26304;DHT22;57113;48.680;8.890;2022-12-10T02:42:38;7.60;99.90
26304;DHT22;57113;48.680;8.890;2022-12-10T02:45:06;7.60;99.90
26304;DHT22;57113;48.680;8.890;2022-12-10T02:47:34;7.50;99.90
26304;DHT22;57113;48.680;8.890;2022-12-10T02:50:00;7.50;99.90
26304;DHT22;57113;48.680;8.890;2022-12-10T02:52:26;7.50;99.90
26304;DHT22;57113;48.680;8.890;2022-12-10T02:54:52;7.50;99.90
26304;DHT22;57113;48.680;8.890;2022-12-10T02:57:46;7.40;99.90
26304;DHT22;57113;48.680;8.890;2022-12-10T03:00:17;7.40;99.90
26304;DHT22;57113;48.680;8.890;2022-12-10T03:05:35;7.40;99.90
26304;DHT22;57113;48.680;8.890;2022-12-10T03:14:07;7.60;99.90
26304;DHT22;57113;48.680;8.890;2022-12-10T03:16:45;7.70;99.90
26304;DHT22;57113;48.680;8.890;2022-12-10T03:19:20;7.70;99.90
26304;DHT22;57113;48.680;8.890;2022-12-10T03:21:47;7.70;99.90
26304;DHT22;57113;48.680;8.890;2022-12-10T03:24:13;7.70;99.90
26304;DHT22;57113;48.680;8.890;2022-12-10T03:26:41;7.70;99.90
26304;DHT22;57113;48.680;8.890;2022-12-10T03:29:12;7.70;99.90
26304;DHT22;57113;48.680;8.890;2022-12-10T03:31:41;7.70;99.90
26304;DHT22;57113;48.680;8.890;2022-12-10T03:34:08;7.70;99.90
26304;DHT22;57113;48.680;8.890;2022-12-10T03:36:35;7.70;99.90
26304;DHT22;57113;48.680;8.890;2022-12-10T03:39:01;7.70;99.90
26304;DHT22;57113;48.680;8.890;2022-12-10T03:41:27;7.60;99.90
26304;DHT22;57113;48.680;8.890;2022-12-10T03:43:55;7.60;99.90
26304;DHT22;57113;48.680;8.890;2022-12-10T03:46:22;7.60;99.90
26304;DHT22;57113;48.680;8.890;2022-12-10T03:48:48;7.60;99.90
26304;DHT22;57113;48.680;8.890;2022-12-10T03:51:13;7.50;99.90
26304;DHT22;57113;48.680;8.890;2022-12-10T03:53:40;7.50;99.90
26304;DHT22;57113;48.680;8.890;2022-12-10T03:56:06;7.50;99.90
26304;DHT22;57113;48.680;8.890;2022-12-10T03:58:32;7.40;99.90
26304;DHT22;57113;48.680;8.890;2022-12-10T04:00:57;7.40;99.90
26304;DHT22;57113;48.680;8.890;2022-12-10T04:03:23;7.40;99.90
26304;DHT22;57113;48.680;8.890;2022-12-10T04:05:48;7.40;99.90
26304;DHT22;57113;48.680;8.890;2022-12-10T04:08:14;7.50;99.90
26304;DHT22;57113;48.680;8.890;2022-12-10T04:10:40;7.50;99.90
26304;DHT22;57113;48.680;8.890;2022-12-10T04:13:06;7.60;99.90
26304;DHT22;57113;48.680;8.890;2022-12-10T04:15:50;7.70;99.90
26304;DHT22;57113;48.680;8.890;2022-12-10T04:18:34;7.70;99.90
26304;DHT22;57113;48.680;8.890;2022-12-10T04:21:00;7.70;99.90
26304;DHT22;57113;48.680;8.890;2022-12-10T04:23:44;7.70;99.90
26304;DHT22;57113;48.680;8.890;2022-12-10T04:26:28;7.80;99.90
26304;DHT22;57113;48.680;8.890;2022-12-10T04:29:12;7.80;99.90
26304;DHT22;57113;48.680;8.890;2022-12-10T04:31:38;7.70;99.90
26304;DHT22;57113;48.680;8.890;2022-12-10T04:34:03;7.70;99.90
26304;DHT22;57113;48.680;8.890;2022-12-10T04:36:29;7.70;99.90
26304;DHT22;57113;48.680;8.890;2022-12-10T04:38:55;7.70;99.90
26304;DHT22;57113;48.680;8.890;2022-12-10T04:41:20;7.70;99.90
26304;DHT22;57113;48.680;8.890;2022-12-10T04:43:46;7.60;99.90
26304;DHT22;57113;48.680;8.890;2022-12-10T04:46:12;7.60;99.90
26304;DHT22;57113;48.680;8.890;2022-12-10T04:48:37;7.60;99.90
26304;DHT22;57113;48.680;8.890;2022-12-10T04:51:03;7.50;99.90
26304;DHT22;57113;48.680;8.890;2022-12-10T04:53:29;7.50;99.90
26304;DHT22;57113;48.680;8.890;2022-12-10T04:55:55;7.50;99.90
26304;DHT22;57113;48.680;8.890;2022-12-10T04:58:20;7.50;99.90
26304;DHT22;57113;48.680;8.890;2022-12-10T05:00:46;7.40;99.90
26304;DHT22;57113;48.680;8.890;2022-12-10T05:03:12;7.40;99.90
26304;DHT22;57113;48.680;8.890;2022-12-10T05:05:37;7.40;99.90
26304;DHT22;57113;48.680;8.890;2022-12-10T05:08:03;7.50;99.90
26304;DHT22;57113;48.680;8.890;2022-12-10T05:10:29;7.50;99.90
26304;DHT22;57113;48.680;8.890;2022-12-10T05:12:55;7.60;99.90
26304;DHT22;57113;48.680;8.890;2022-12-10T05:15:21;7.70;99.90
26304;DHT22;57113;48.680;8.890;2022-12-10T05:17:47;7.70;99.90
26304;DHT22;57113;48.680;8.890;2022-12-10T05:20:13;7.80;99.90
26304;DHT22;57113;48.680;8.890;2022-12-10T05:22:38;7.80;99.90
26304;DHT22;57113;48.680;8.890;2022-12-10T05:25:22;7.80;99.90
26304;DHT22;57113;48.680;8.890;2022-12-10T05:27:48;7.80;99.90
26304;DHT22;57113;48.680;8.890;2022-12-10T05:30:14;7.80;99.90
26304;DHT22;57113;48.680;8.890;2022-12-10T05:32:39;7.70;99.90
26304;DHT22;57113;48.680;8.890;2022-12-10T05:35:05;7.70;99.90
26304;DHT22;57113;48.680;8.890;2022-12-10T05:37:31;7.70;99.90
26304;DHT22;57113;48.680;8.890;2022-12-10T05:39:57;7.70;99.90
26304;DHT22;57113;48.680;8.890;2022-12-10T05:42:22;7.60;99.90
26304;DHT22;57113;48.680;8.890;2022-12-10T05:44:48;7.60;99.90
26304;DHT22;57113;48.680;8.890;2022-12-10T05:47:13;7.60;99.90
26304;DHT22;57113;48.680;8.890;2022-12-10T05:49:39;7.50;99.90
26304;DHT22;57113;48.680;8.890;2022-12-10T05:52:05;7.50;99.90
26304;DHT22;57113;48.680;8.890;2022-12-10T05:54:30;7.50;99.90
26304;DHT22;57113;48.680;8.890;2022-12-10T05:56:56;7.50;99.90
26304;DHT22;57113;48.680;8.890;2022-12-10T05:59:22;7.40;99.90
26304;DHT22;57113;48.680;8.890;2022-12-10T06:01:47;7.40;99.90
26304;DHT22;57113;48.680;8.890;2022-12-10T06:04:13;7.40;99.90
26304;DHT22;57113;48.680;8.890;2022-12-10T06:06:39;7.50;99.90
26304;DHT22;57113;48.680;8.890;2022-12-10T06:09:07;7.50;99.90
26304;DHT22;57113;48.680;8.890;2022-12-10T06:11:35;7.60;99.90
26304;DHT22;57113;48.680;8.890;2022-12-10T06:14:01;7.70;99.90
26304;DHT22;57113;48.680;8.890;2022-12-10T06:16:27;7.70;99.90
26304;DHT22;57113;48.680;8.890;2022-12-10T06:18:54;7.70;99.90
26304;DHT22;57113;48.680;8.890;2022-12-10T06:21:20;7.70;99.90
26304;DHT22;57113;48.680;8.890;2022-12-10T06:23:47;7.70;99.90
26304;DHT22;57113;48.680;8.890;2022-12-10T06:26:16;7.80;99.90
26304;DHT22;57113;48.680;8.890;2022-12-10T06:28:45;7.80;99.90
26304;DHT22;57113;48.680;8.890;2022-12-10T06:31:11;7.70;99.90
26304;DHT22;57113;48.680;8.890;2022-12-10T06:33:37;7.70;99.90
26304;DHT22;57113;48.680;8.890;2022-12-10T06:36:07;7.70;99.90
26304;DHT22;57113;48.680;8.890;2022-12-10T06:38:33;7.70;99.90
26304;DHT22;57113;48.680;8.890;2022-12-10T06:40:59;7.70;99.90
26304;DHT22;57113;48.680;8.890;2022-12-10T06:43:28;7.60;99.90
26304;DHT22;57113;48.680;8.890;2022-12-10T06:45:53;7.60;99.90
26304;DHT22;57113;48.680;8.890;2022-12-10T06:48:19;7.60;99.90
26304;DHT22;57113;48.680;8.890;2022-12-10T06:50:45;7.60;99.90
26304;DHT22;57113;48.680;8.890;2022-12-10T06:53:10;7.50;99.90
26304;DHT22;57113;48.680;8.890;2022-12-10T06:55:37;7.50;99.90
26304;DHT22;57113;48.680;8.890;2022-12-10T06:58:03;7.40;99.90
26304;DHT22;57113;48.680;8.890;2022-12-10T07:00:29;7.40;99.90
26304;DHT22;57113;48.680;8.890;2022-12-10T07:02:55;7.40;99.90
26304;DHT22;57113;48.680;8.890;2022-12-10T07:05:20;7.40;99.90
26304;DHT22;57113;48.680;8.890;2022-12-10T07:07:46;7.50;99.90
26304;DHT22;57113;48.680;8.890;2022-12-10T07:10:12;7.50;99.90
26304;DHT22;57113;48.680;8.890;2022-12-10T07:12:38;7.60;99.90
26304;DHT22;57113;48.680;8.890;2022-12-10T07:15:04;7.70;99.90
26304;DHT22;57113;48.680;8.890;2022-12-10T07:17:30;7.70;99.90
26304;DHT22;57113;48.680;8.890;2022-12-10T07:19:56;7.70;99.90
26304;DHT22;57113;48.680;8.890;2022-12-10T07:22:21;7.70;99.90
26304;DHT22;57113;48.680;8.890;2022-12-10T07:24:48;7.70;99.90
26304;DHT22;57113;48.680;8.890;2022-12-10T07:27:14;7.70;99.90
26304;DHT22;57113;48.680;8.890;2022-12-10T07:29:39;7.70;99.90
26304;DHT22;57113;48.680;8.890;2022-12-10T07:32:05;7.70;99.90
26304;DHT22;57113;48.680;8.890;2022-12-10T07:34:31;7.70;99.90
26304;DHT22;57113;48.680;8.890;2022-12-10T07:36:56;7.70;99.90
26304;DHT22;57113;48.680;8.890;2022-12-10T07:39:22;7.70;99.90
26304;DHT22;57113;48.680;8.890;2022-12-10T07:41:51;7.60;99.90
26304;DHT22;57113;48.680;8.890;2022-12-10T07:44:19;7.60;99.90
26304;DHT22;57113;48.680;8.890;2022-12-10T07:46:46;7.50;99.90
26304;DHT22;57113;48.680;8.890;2022-12-10T07:49:12;7.50;99.90
26304;DHT22;57113;48.680;8.890;2022-12-10T07:51:38;7.50;99.90
26304;DHT22;57113;48.680;8.890;2022-12-10T07:54:04;7.50;99.90
26304;DHT22;57113;48.680;8.890;2022-12-10T07:56:29;7.50;99.90
26304;DHT22;57113;48.680;8.890;2022-12-10T07:58:55;7.40;99.90
26304;DHT22;57113;48.680;8.890;2022-12-10T08:01:23;7.40;99.90
26304;DHT22;57113;48.680;8.890;2022-12-10T08:03:50;7.40;99.90
26304;DHT22;57113;48.680;8.890;2022-12-10T08:06:18;7.40;99.90
26304;DHT22;57113;48.680;8.890;2022-12-10T08:08:45;7.40;99.90
26304;DHT22;57113;48.680;8.890;2022-12-10T08:11:12;7.40;99.90
26304;DHT22;57113;48.680;8.890;2022-12-10T08:13:38;7.40;99.90
26304;DHT22;57113;48.680;8.890;2022-12-10T08:16:06;7.30;99.90
26304;DHT22;57113;48.680;8.890;2022-12-10T08:18:33;7.30;99.90
26304;DHT22;57113;48.680;8.890;2022-12-10T08:21:04;7.30;99.90
26304;DHT22;57113;48.680;8.890;2022-12-10T08:23:30;7.30;99.90
26304;DHT22;57113;48.680;8.890;2022-12-10T08:25:56;7.30;99.90
26304;DHT22;57113;48.680;8.890;2022-12-10T08:28:21;7.30;99.90
26304;DHT22;57113;48.680;8.890;2022-12-10T08:30:48;7.30;99.90
26304;DHT22;57113;48.680;8.890;2022-12-10T08:33:14;7.30;99.90
26304;DHT22;57113;48.680;8.890;2022-12-10T08:35:39;7.30;99.90
26304;DHT22;57113;48.680;8.890;2022-12-10T08:38:05;7.30;99.90
26304;DHT22;57113;48.680;8.890;2022-12-10T08:40:30;7.30;99.90
26304;DHT22;57113;48.680;8.890;2022-12-10T08:42:56;7.30;99.90
26304;DHT22;57113;48.680;8.890;2022-12-10T08:45:22;7.30;99.90
26304;DHT22;57113;48.680;8.890;2022-12-10T08:47:47;7.30;99.90
26304;DHT22;57113;48.680;8.890;2022-12-10T08:50:13;7.30;99.90
26304;DHT22;57113;48.680;8.890;2022-12-10T08:52:39;7.30;99.90
26304;DHT22;57113;48.680;8.890;2022-12-10T08:55:05;7.30;99.90
26304;DHT22;57113;48.680;8.890;2022-12-10T08:57:30;7.30;99.90
26304;DHT22;57113;48.680;8.890;2022-12-10T08:59:56;7.30;99.90
26304;DHT22;57113;48.680;8.890;2022-12-10T09:02:21;7.30;99.90
26304;DHT22;57113;48.680;8.890;2022-12-10T09:04:47;7.30;99.90
26304;DHT22;57113;48.680;8.890;2022-12-10T09:07:15;7.30;99.90
26304;DHT22;57113;48.680;8.890;2022-12-10T09:09:40;7.30;99.90
26304;DHT22;57113;48.680;8.890;2022-12-10T09:12:06;7.30;99.90
26304;DHT22;57113;48.680;8.890;2022-12-10T09:14:32;7.30;99.90
26304;DHT22;57113;48.680;8.890;2022-12-10T09:16:57;7.30;99.90
26304;DHT22;57113;48.680;8.890;2022-12-10T09:19:23;7.30;99.90
26304;DHT22;57113;48.680;8.890;2022-12-10T09:21:49;7.20;99.90
26304;DHT22;57113;48.680;8.890;2022-12-10T09:24:14;7.20;99.90
26304;DHT22;57113;48.680;8.890;2022-12-10T09:26:40;7.20;99.90
26304;DHT22;57113;48.680;8.890;2022-12-10T09:29:05;7.20;99.90
26304;DHT22;57113;48.680;8.890;2022-12-10T09:31:31;7.20;99.90
26304;DHT22;57113;48.680;8.890;2022-12-10T09:33:57;7.20;99.90
26304;DHT22;57113;48.680;8.890;2022-12-10T09:36:22;7.20;99.90
26304;DHT22;57113;48.680;8.890;2022-12-10T09:38:49;7.20;99.90
26304;DHT22;57113;48.680;8.890;2022-12-10T09:44:31;7.20;99.90
26304;DHT22;57113;48.680;8.890;2022-12-10T09:46:59;7.20;99.90
26304;DHT22;57113;48.680;8.890;2022-12-10T09:50:02;7.20;99.90
26304;DHT22;57113;48.680;8.890;2022-12-10T09:52:40;7.20;99.90
26304;DHT22;57113;48.680;8.890;2022-12-10T09:55:17;7.20;99.90
26304;DHT22;57113;48.680;8.890;2022-12-10T09:57:48;7.30;99.90
26304;DHT22;57113;48.680;8.890;2022-12-10T10:02:46;7.20;99.90
26304;DHT22;57113;48.680;8.890;2022-12-10T10:06:01;7.30;99.90
26304;DHT22;57113;48.680;8.890;2022-12-10T10:08:13;7.20;99.90
26304;DHT22;57113;48.680;8.890;2022-12-10T10:10:40;7.20;99.90
26304;DHT22;57113;48.680;8.890;2022-12-10T10:15:34;7.20;99.90
26304;DHT22;57113;48.680;8.890;2022-12-10T10:21:17;7.20;99.90
26304;DHT22;57113;48.680;8.890;2022-12-10T10:23:46;7.20;99.90
26304;DHT22;57113;48.680;8.890;2022-12-10T10:26:11;7.20;99.90
26304;DHT22;57113;48.680;8.890;2022-12-10T10:28:39;7.20;99.90
26304;DHT22;57113;48.680;8.890;2022-12-10T10:31:18;7.20;99.90
26304;DHT22;57113;48.680;8.890;2022-12-10T10:33:51;7.30;99.90
26304;DHT22;57113;48.680;8.890;2022-12-10T10:36:24;7.20;99.90
26304;DHT22;57113;48.680;8.890;2022-12-10T10:38:50;7.20;99.90
26304;DHT22;57113;48.680;8.890;2022-12-10T10:41:15;7.30;99.90
26304;DHT22;57113;48.680;8.890;2022-12-10T10:43:43;7.20;99.90
26304;DHT22;57113;48.680;8.890;2022-12-10T10:46:14;7.20;99.90
26304;DHT22;57113;48.680;8.890;2022-12-10T10:48:40;7.30;99.90
26304;DHT22;57113;48.680;8.890;2022-12-10T10:53:45;7.30;99.90
26304;DHT22;57113;48.680;8.890;2022-12-10T10:56:23;7.30;99.90
26304;DHT22;57113;48.680;8.890;2022-12-10T10:59:05;7.30;99.90
26304;DHT22;57113;48.680;8.890;2022-12-10T11:01:54;7.30;99.90
26304;DHT22;57113;48.680;8.890;2022-12-10T11:04:52;7.20;99.90
26304;DHT22;57113;48.680;8.890;2022-12-10T11:07:33;7.30;99.90
26304;DHT22;57113;48.680;8.890;2022-12-10T11:10:00;7.30;99.90
26304;DHT22;57113;48.680;8.890;2022-12-10T11:12:40;7.30;99.90
26304;DHT22;57113;48.680;8.890;2022-12-10T11:18:01;7.30;99.90
26304;DHT22;57113;48.680;8.890;2022-12-10T11:20:34;7.30;99.90
26304;DHT22;57113;48.680;8.890;2022-12-10T11:23:02;7.30;99.90
26304;DHT22;57113;48.680;8.890;2022-12-10T11:26:05;7.30;99.90
26304;DHT22;57113;48.680;8.890;2022-12-10T11:31:13;7.30;99.90
26304;DHT22;57113;48.680;8.890;2022-12-10T11:36:38;7.30;99.90
26304;DHT22;57113;48.680;8.890;2022-12-10T11:50:02;7.30;99.90
26304;DHT22;57113;48.680;8.890;2022-12-10T12:06:57;7.00;99.90
26304;DHT22;57113;48.680;8.890;2022-12-10T12:09:56;7.00;99.90
26304;DHT22;57113;48.680;8.890;2022-12-10T12:12:43;7.00;99.90
26304;DHT22;57113;48.680;8.890;2022-12-10T12:15:20;7.00;99.90
26304;DHT22;57113;48.680;8.890;2022-12-10T12:17:58;7.00;99.90
26304;DHT22;57113;48.680;8.890;2022-12-10T12:20:33;7.00;99.90
26304;DHT22;57113;48.680;8.890;2022-12-10T12:23:28;7.10;99.90
26304;DHT22;57113;48.680;8.890;2022-12-10T12:26:06;7.10;99.90
26304;DHT22;57113;48.680;8.890;2022-12-10T12:31:31;7.10;99.90
26304;DHT22;57113;48.680;8.890;2022-12-10T12:34:20;7.10;99.90
26304;DHT22;57113;48.680;8.890;2022-12-10T12:36:47;7.10;99.90
26304;DHT22;57113;48.680;8.890;2022-12-10T12:42:38;7.10;99.90
26304;DHT22;57113;48.680;8.890;2022-12-10T12:45:19;7.10;99.90
26304;DHT22;57113;48.680;8.890;2022-12-10T12:48:25;7.10;99.90
26304;DHT22;57113;48.680;8.890;2022-12-10T12:51:09;7.20;99.90
26304;DHT22;57113;48.680;8.890;2022-12-10T12:53:35;7.20;99.90
26304;DHT22;57113;48.680;8.890;2022-12-10T13:01:25;7.20;99.90
26304;DHT22;57113;48.680;8.890;2022-12-10T13:03:53;7.20;99.90
26304;DHT22;57113;48.680;8.890;2022-12-10T13:06:24;7.20;99.90
26304;DHT22;57113;48.680;8.890;2022-12-10T13:12:27;7.20;99.90
26304;DHT22;57113;48.680;8.890;2022-12-10T13:17:35;7.20;99.90
26304;DHT22;57113;48.680;8.890;2022-12-10T13:33:52;7.20;99.90
26304;DHT22;57113;48.680;8.890;2022-12-10T13:39:19;7.20;99.90
26304;DHT22;57113;48.680;8.890;2022-12-10T13:47:43;7.20;99.90
26304;DHT22;57113;48.680;8.890;2022-12-10T13:50:16;7.20;99.90
26304;DHT22;57113;48.680;8.890;2022-12-10T13:53:12;7.20;99.90
26304;DHT22;57113;48.680;8.890;2022-12-10T14:01:05;7.20;99.90
26304;DHT22;57113;48.680;8.890;2022-12-10T14:06:20;7.20;99.90
26304;DHT22;57113;48.680;8.890;2022-12-10T14:09:19;7.20;99.90
26304;DHT22;57113;48.680;8.890;2022-12-10T14:11:57;7.20;99.90
26304;DHT22;57113;48.680;8.890;2022-12-10T14:14:43;7.20;99.90
26304;DHT22;57113;48.680;8.890;2022-12-10T14:17:16;7.20;99.90
26304;DHT22;57113;48.680;8.890;2022-12-10T14:19:45;7.20;99.90
26304;DHT22;57113;48.680;8.890;2022-12-10T14:22:34;7.20;99.90
26304;DHT22;57113;48.680;8.890;2022-12-10T14:25:02;7.20;99.90
26304;DHT22;57113;48.680;8.890;2022-12-10T14:27:30;7.20;99.90
26304;DHT22;57113;48.680;8.890;2022-12-10T14:30:20;7.20;99.90
26304;DHT22;57113;48.680;8.890;2022-12-10T14:32:46;7.20;99.90
26304;DHT22;57113;48.680;8.890;2022-12-10T14:35:20;7.20;99.90
26304;DHT22;57113;48.680;8.890;2022-12-10T14:37:47;7.20;99.90
26304;DHT22;57113;48.680;8.890;2022-12-10T14:40:38;7.20;99.90
26304;DHT22;57113;48.680;8.890;2022-12-10T14:43:06;7.20;99.90
26304;DHT22;57113;48.680;8.890;2022-12-10T14:45:55;7.20;99.90
26304;DHT22;57113;48.680;8.890;2022-12-10T14:48:22;7.20;99.90
26304;DHT22;57113;48.680;8.890;2022-12-10T14:50:48;7.20;99.90
26304;DHT22;57113;48.680;8.890;2022-12-10T14:53:24;7.20;99.90
26304;DHT22;57113;48.680;8.890;2022-12-10T14:55:55;7.20;99.90
26304;DHT22;57113;48.680;8.890;2022-12-10T14:59:18;7.20;99.90
26304;DHT22;57113;48.680;8.890;2022-12-10T15:01:39;7.20;99.90
26304;DHT22;57113;48.680;8.890;2022-12-10T15:04:11;7.20;99.90
26304;DHT22;57113;48.680;8.890;2022-12-10T15:06:38;7.20;99.90
26304;DHT22;57113;48.680;8.890;2022-12-10T15:09:05;7.20;99.90
26304;DHT22;57113;48.680;8.890;2022-12-10T15:11:35;7.20;99.90
26304;DHT22;57113;48.680;8.890;2022-12-10T15:14:02;7.20;99.90
26304;DHT22;57113;48.680;8.890;2022-12-10T15:16:37;7.20;99.90
26304;DHT22;57113;48.680;8.890;2022-12-10T15:24:42;7.20;99.90
26304;DHT22;57113;48.680;8.890;2022-12-10T15:27:22;7.20;99.90
26304;DHT22;57113;48.680;8.890;2022-12-10T15:29:49;7.20;99.90
26304;DHT22;57113;48.680;8.890;2022-12-10T15:32:25;7.10;99.90
26304;DHT22;57113;48.680;8.890;2022-12-10T15:35:03;7.10;99.90
26304;DHT22;57113;48.680;8.890;2022-12-10T15:37:35;7.20;99.90
26304;DHT22;57113;48.680;8.890;2022-12-10T15:40:04;7.20;99.90
26304;DHT22;57113;48.680;8.890;2022-12-10T15:45:26;7.40;99.90
26304;DHT22;57113;48.680;8.890;2022-12-10T15:47:57;7.50;99.90
26304;DHT22;57113;48.680;8.890;2022-12-10T15:50:24;7.60;99.90
26304;DHT22;57113;48.680;8.890;2022-12-10T15:52:50;7.60;99.90
26304;DHT22;57113;48.680;8.890;2022-12-10T15:55:16;7.60;99.90
26304;DHT22;57113;48.680;8.890;2022-12-10T15:57:43;7.70;99.90
26304;DHT22;57113;48.680;8.890;2022-12-10T16:00:17;7.70;99.90
26304;DHT22;57113;48.680;8.890;2022-12-10T16:03:01;7.70;99.90
26304;DHT22;57113;48.680;8.890;2022-12-10T16:05:33;7.60;99.90
26304;DHT22;57113;48.680;8.890;2022-12-10T16:10:49;7.60;99.90
26304;DHT22;57113;48.680;8.890;2022-12-10T16:15:55;7.50;99.90
26304;DHT22;57113;48.680;8.890;2022-12-10T16:18:23;7.50;99.90
26304;DHT22;57113;48.680;8.890;2022-12-10T16:20:49;7.50;99.90
26304;DHT22;57113;48.680;8.890;2022-12-10T16:23:14;7.50;99.90
26304;DHT22;57113;48.680;8.890;2022-12-10T16:25:41;7.50;99.90
26304;DHT22;57113;48.680;8.890;2022-12-10T16:28:12;7.50;99.90
26304;DHT22;57113;48.680;8.890;2022-12-10T16:30:49;7.50;99.90
26304;DHT22;57113;48.680;8.890;2022-12-10T16:33:16;7.40;99.90
26304;DHT22;57113;48.680;8.890;2022-12-10T16:35:43;7.40;99.90
26304;DHT22;57113;48.680;8.890;2022-12-10T16:38:09;7.40;99.90
26304;DHT22;57113;48.680;8.890;2022-12-10T16:40:35;7.30;99.90
26304;DHT22;57113;48.680;8.890;2022-12-10T16:43:01;7.30;99.90
26304;DHT22;57113;48.680;8.890;2022-12-10T16:45:30;7.30;99.90
26304;DHT22;57113;48.680;8.890;2022-12-10T16:47:57;7.30;99.90
26304;DHT22;57113;48.680;8.890;2022-12-10T16:50:23;7.30;99.90
26304;DHT22;57113;48.680;8.890;2022-12-10T16:52:50;7.20;99.90
26304;DHT22;57113;48.680;8.890;2022-12-10T16:55:20;7.20;99.90
26304;DHT22;57113;48.680;8.890;2022-12-10T16:57:47;7.20;99.90
26304;DHT22;57113;48.680;8.890;2022-12-10T17:00:15;7.20;99.90
26304;DHT22;57113;48.680;8.890;2022-12-10T17:02:43;7.20;99.90
26304;DHT22;57113;48.680;8.890;2022-12-10T17:07:49;7.20;99.90
26304;DHT22;57113;48.680;8.890;2022-12-10T17:10:14;7.30;99.90
26304;DHT22;57113;48.680;8.890;2022-12-10T17:12:41;7.40;99.90
26304;DHT22;57113;48.680;8.890;2022-12-10T17:15:12;7.50;99.90
26304;DHT22;57113;48.680;8.890;2022-12-10T17:17:38;7.50;99.90
26304;DHT22;57113;48.680;8.890;2022-12-10T17:20:18;7.60;99.90
26304;DHT22;57113;48.680;8.890;2022-12-10T17:22:46;7.60;99.90
26304;DHT22;57113;48.680;8.890;2022-12-10T17:25:11;7.60;99.90
26304;DHT22;57113;48.680;8.890;2022-12-10T17:27:37;7.60;99.90
26304;DHT22;57113;48.680;8.890;2022-12-10T17:30:04;7.60;99.90
26304;DHT22;57113;48.680;8.890;2022-12-10T17:32:30;7.60;99.90
26304;DHT22;57113;48.680;8.890;2022-12-10T17:34:57;7.60;99.90
26304;DHT22;57113;48.680;8.890;2022-12-10T17:37:25;7.50;99.90
26304;DHT22;57113;48.680;8.890;2022-12-10T17:39:53;7.50;99.90
26304;DHT22;57113;48.680;8.890;2022-12-10T17:42:19;7.50;99.90
26304;DHT22;57113;48.680;8.890;2022-12-10T17:44:44;7.40;99.90
26304;DHT22;57113;48.680;8.890;2022-12-10T17:47:22;7.40;99.90
26304;DHT22;57113;48.680;8.890;2022-12-10T17:49:48;7.40;99.90
26304;DHT22;57113;48.680;8.890;2022-12-10T17:52:14;7.30;99.90
26304;DHT22;57113;48.680;8.890;2022-12-10T17:54:40;7.30;99.90
26304;DHT22;57113;48.680;8.890;2022-12-10T17:57:17;7.30;99.90
26304;DHT22;57113;48.680;8.890;2022-12-10T17:59:44;7.30;99.90
26304;DHT22;57113;48.680;8.890;2022-12-10T18:02:10;7.30;99.90
26304;DHT22;57113;48.680;8.890;2022-12-10T18:04:37;7.20;99.90
26304;DHT22;57113;48.680;8.890;2022-12-10T18:07:07;7.30;99.90
26304;DHT22;57113;48.680;8.890;2022-12-10T18:09:33;7.30;99.90
26304;DHT22;57113;48.680;8.890;2022-12-10T18:11:59;7.40;99.90